Time;durP1;ratioP1;P1;durP2;ratioP2;P2;SDS_P1;SDS_P2;PMS_P1;PMS_P2;Temp;Humidity;BMP_temperature;BMP_pressure;BME280_temperature;BME280_humidity;BME280_pressure;Samples;Min_cycle;Max_cycle;Signal;HPM_P1;HPM_P2
2022/03/19 00:00:51;;;;;;;68.80;51.43;;;6.10;99.90;;;;;;5011996;28;20174;-69
2022/03/19 00:03:18;;;;;;;77.47;51.57;;;6.00;99.90;;;;;;5010609;28;20183;-69
2022/03/19 00:05:44;;;;;;;71.00;50.07;;;6.00;99.90;;;;;;5008910;28;20779;-69
2022/03/19 00:08:11;;;;;;;72.13;52.90;;;6.00;99.90;;;;;;5012168;28;20438;-69
2022/03/19 00:10:36;;;;;;;78.77;54.47;;;6.00;99.90;;;;;;5012212;28;20465;-69
2022/03/19 00:13:02;;;;;;;77.53;51.93;;;6.00;99.90;;;;;;5010570;28;20446;-69
2022/03/19 00:15:28;;;;;;;76.23;53.97;;;6.00;99.90;;;;;;5012686;28;20521;-69
2022/03/19 00:17:54;;;;;;;71.57;50.87;;;6.00;99.90;;;;;;5002603;28;20662;-69
2022/03/19 00:20:21;;;;;;;75.47;52.10;;;5.90;99.90;;;;;;5012195;28;20202;-69
2022/03/19 00:22:46;;;;;;;71.83;48.73;;;5.90;99.90;;;;;;5006399;28;20187;-69
2022/03/19 00:25:12;;;;;;;71.70;50.07;;;5.90;99.90;;;;;;5011407;28;20453;-69
2022/03/19 00:27:40;;;;;;;79.10;51.80;;;5.90;99.90;;;;;;5007005;28;20183;-69
2022/03/19 00:30:06;;;;;;;66.83;47.50;;;5.90;99.90;;;;;;5010527;28;20260;-69
2022/03/19 00:32:32;;;;;;;66.27;48.83;;;5.90;99.90;;;;;;5005290;28;20438;-70
2022/03/19 00:34:58;;;;;;;68.73;49.30;;;5.90;99.90;;;;;;4999992;28;20430;-69
2022/03/19 00:37:23;;;;;;;72.80;48.07;;;5.90;99.90;;;;;;5009459;28;20601;-69
2022/03/19 00:39:49;;;;;;;70.63;49.03;;;5.90;99.90;;;;;;5001749;28;20191;-69
2022/03/19 00:42:14;;;;;;;68.20;49.83;;;5.90;99.90;;;;;;5005861;28;20182;-69
2022/03/19 00:44:40;;;;;;;70.63;47.80;;;5.90;99.90;;;;;;5005381;28;20206;-69
2022/03/19 00:47:06;;;;;;;73.33;49.50;;;5.80;99.90;;;;;;5007569;28;20186;-69
2022/03/19 00:49:31;;;;;;;74.30;49.70;;;5.80;99.90;;;;;;5008376;28;20211;-69
2022/03/19 00:51:57;;;;;;;70.40;50.37;;;5.80;99.90;;;;;;5002921;28;20187;-69
2022/03/19 00:54:22;;;;;;;69.13;49.13;;;5.80;99.90;;;;;;4990403;28;20175;-69
2022/03/19 00:56:48;;;;;;;70.07;48.37;;;5.80;99.90;;;;;;5001950;28;20262;-69
2022/03/19 00:59:13;;;;;;;68.43;47.33;;;5.80;99.90;;;;;;4991003;28;20783;-70
2022/03/19 01:01:39;;;;;;;71.10;47.40;;;5.80;99.90;;;;;;5000715;28;20647;-69
2022/03/19 01:04:04;;;;;;;76.67;47.77;;;5.80;99.90;;;;;;5008618;28;20186;-69
2022/03/19 01:06:30;;;;;;;73.20;46.90;;;5.80;99.90;;;;;;5004926;28;20190;-70
2022/03/19 01:08:56;;;;;;;71.57;48.40;;;5.80;99.90;;;;;;5006083;28;20199;-69
2022/03/19 01:11:23;;;;;;;72.87;48.37;;;5.80;99.90;;;;;;5009765;28;20206;-69
2022/03/19 01:13:50;;;;;;;68.70;46.50;;;5.70;99.90;;;;;;5006640;28;20171;-69
2022/03/19 01:16:18;;;;;;;69.77;49.57;;;5.70;99.90;;;;;;5002353;28;21119;-69
2022/03/19 01:18:44;;;;;;;71.30;48.27;;;5.70;99.90;;;;;;5009563;28;20452;-69
2022/03/19 01:21:10;;;;;;;65.70;47.80;;;5.80;99.90;;;;;;5010199;28;20437;-69
2022/03/19 01:23:35;;;;;;;66.30;46.87;;;5.70;99.90;;;;;;5008534;28;20449;-69
2022/03/19 01:26:01;;;;;;;66.47;47.87;;;5.70;99.90;;;;;;5007388;28;20598;-69
2022/03/19 01:28:26;;;;;;;65.47;47.43;;;5.60;99.90;;;;;;5004501;28;20233;-69
2022/03/19 01:30:52;;;;;;;65.50;45.90;;;5.60;99.90;;;;;;5005924;28;20221;-69
2022/03/19 01:33:17;;;;;;;63.23;47.67;;;5.70;99.90;;;;;;5006713;28;20643;-69
2022/03/19 01:35:43;;;;;;;71.10;50.00;;;5.60;99.90;;;;;;5003478;28;20254;-69
2022/03/19 01:38:08;;;;;;;61.67;46.83;;;5.60;99.90;;;;;;5004503;28;20206;-69
2022/03/19 01:40:34;;;;;;;66.27;48.27;;;5.60;99.90;;;;;;5003963;28;20213;-70
2022/03/19 01:43:00;;;;;;;63.50;46.70;;;5.60;99.90;;;;;;4999618;28;20674;-69
2022/03/19 01:45:26;;;;;;;64.03;47.60;;;5.60;99.90;;;;;;5005695;28;20220;-70
2022/03/19 01:47:53;;;;;;;63.03;46.30;;;5.60;99.90;;;;;;4998031;28;20446;-70
2022/03/19 01:50:21;;;;;;;66.23;49.37;;;5.60;99.90;;;;;;4999481;28;20224;-70
2022/03/19 01:52:47;;;;;;;64.90;46.93;;;5.60;99.90;;;;;;5007682;28;20435;-70
2022/03/19 01:55:15;;;;;;;65.60;45.83;;;5.50;99.90;;;;;;5007092;28;20449;-70
2022/03/19 01:57:43;;;;;;;68.47;47.70;;;5.50;99.90;;;;;;5009611;28;20434;-70
2022/03/19 02:00:11;;;;;;;63.90;45.60;;;5.50;99.90;;;;;;5008304;28;20458;-69
2022/03/19 02:02:37;;;;;;;67.57;48.03;;;5.50;99.90;;;;;;5007403;28;20969;-69
2022/03/19 02:05:04;;;;;;;61.70;45.70;;;5.50;99.90;;;;;;5004787;28;20441;-69
2022/03/19 02:07:31;;;;;;;64.23;47.80;;;5.50;99.90;;;;;;5009119;28;20812;-69
2022/03/19 02:09:58;;;;;;;62.90;45.23;;;5.40;99.90;;;;;;5001204;28;20484;-69
2022/03/19 02:12:24;;;;;;;62.17;44.57;;;5.40;99.90;;;;;;5008680;28;20469;-69
2022/03/19 02:14:49;;;;;;;61.47;43.43;;;5.40;99.90;;;;;;5009428;28;20873;-69
2022/03/19 02:17:15;;;;;;;64.87;44.23;;;5.40;99.90;;;;;;5008144;28;20190;-69
2022/03/19 02:19:51;;;;;;;64.23;45.87;;;5.40;99.90;;;;;;5006414;28;20215;-70
2022/03/19 02:22:21;;;;;;;58.17;42.17;;;5.40;99.90;;;;;;5008440;28;20175;-69
2022/03/19 02:27:33;;;;;;;63.63;45.93;;;5.40;99.90;;;;;;5006713;28;20534;-70
2022/03/19 02:29:59;;;;;;;62.03;45.23;;;5.40;99.90;;;;;;5007940;28;20465;-69
2022/03/19 02:32:25;;;;;;;56.40;43.47;;;5.40;99.90;;;;;;5009758;28;20469;-69
2022/03/19 02:34:52;;;;;;;68.13;45.67;;;5.30;99.90;;;;;;5003368;28;20532;-70
2022/03/19 02:37:18;;;;;;;68.77;46.20;;;5.40;99.90;;;;;;4988990;28;20431;-69
2022/03/19 02:39:44;;;;;;;62.47;43.60;;;5.40;99.90;;;;;;4999261;28;20462;-70
2022/03/19 02:42:09;;;;;;;63.47;44.00;;;5.30;99.90;;;;;;5012052;28;20433;-69
2022/03/19 02:44:35;;;;;;;65.23;46.13;;;5.20;99.90;;;;;;5004590;28;20480;-69
2022/03/19 02:47:04;;;;;;;61.27;42.57;;;5.20;99.90;;;;;;4991275;28;20210;-69
2022/03/19 02:49:30;;;;;;;58.63;43.40;;;5.20;99.90;;;;;;5003399;28;20681;-70
2022/03/19 02:51:56;;;;;;;61.43;43.03;;;5.20;99.90;;;;;;5006641;28;20443;-69
2022/03/19 02:54:23;;;;;;;58.33;44.40;;;5.20;99.90;;;;;;5009869;28;20557;-69
2022/03/19 02:56:51;;;;;;;62.93;43.73;;;5.20;99.90;;;;;;5005604;28;20441;-69
2022/03/19 02:59:20;;;;;;;61.47;45.27;;;5.10;99.90;;;;;;5007634;28;20453;-70
2022/03/19 03:01:47;;;;;;;66.53;44.90;;;5.10;99.90;;;;;;5006715;28;20521;-69
2022/03/19 03:04:14;;;;;;;64.43;44.13;;;5.10;99.90;;;;;;5006236;28;20446;-70
2022/03/19 03:06:41;;;;;;;66.07;46.43;;;5.10;99.90;;;;;;5004084;28;20435;-69
2022/03/19 03:09:08;;;;;;;59.97;44.63;;;5.00;99.90;;;;;;4992091;28;20830;-70
2022/03/19 03:11:34;;;;;;;63.87;45.57;;;5.00;99.90;;;;;;5009564;28;20560;-70
2022/03/19 03:14:00;;;;;;;67.43;44.17;;;5.10;99.90;;;;;;5009482;28;20438;-70
2022/03/19 03:16:32;;;;;;;57.17;42.73;;;5.10;99.90;;;;;;5012529;28;20430;-69
2022/03/19 03:19:01;;;;;;;65.13;45.77;;;5.10;99.90;;;;;;5011984;28;20313;-70
2022/03/19 03:21:27;;;;;;;64.47;46.27;;;5.00;99.90;;;;;;4994864;28;20878;-70
2022/03/19 03:23:54;;;;;;;59.40;44.57;;;5.00;99.90;;;;;;5002984;28;20519;-70
2022/03/19 03:26:20;;;;;;;57.33;43.03;;;4.90;99.90;;;;;;5002862;28;20649;-69
2022/03/19 03:28:45;;;;;;;57.50;43.47;;;5.00;99.90;;;;;;5007776;28;20522;-70
2022/03/19 03:31:11;;;;;;;60.13;41.17;;;5.00;99.90;;;;;;5010503;28;20583;-69
2022/03/19 03:33:37;;;;;;;60.47;44.33;;;5.00;99.90;;;;;;5012169;28;20175;-69
2022/03/19 03:36:03;;;;;;;59.13;40.40;;;5.00;99.90;;;;;;5006623;28;20276;-69
2022/03/19 03:38:29;;;;;;;56.60;41.80;;;4.90;99.90;;;;;;5010386;28;20194;-69
2022/03/19 03:40:55;;;;;;;63.63;45.13;;;4.90;99.90;;;;;;5011709;28;20453;-70
2022/03/19 03:43:21;;;;;;;65.33;40.77;;;4.90;99.90;;;;;;5005739;28;20442;-68
2022/03/19 03:45:47;;;;;;;59.30;41.83;;;4.90;99.90;;;;;;5011289;28;20194;-70
2022/03/19 03:48:12;;;;;;;59.80;43.00;;;4.90;99.90;;;;;;5011977;28;20274;-69
2022/03/19 03:50:38;;;;;;;55.13;40.27;;;4.90;99.90;;;;;;5008917;28;20215;-69
2022/03/19 03:53:04;;;;;;;59.83;41.20;;;4.90;99.90;;;;;;5007521;28;20187;-69
2022/03/19 03:55:31;;;;;;;60.97;41.57;;;4.80;99.90;;;;;;5007240;28;20616;-70
2022/03/19 03:57:57;;;;;;;54.57;40.50;;;4.80;99.90;;;;;;5008464;28;20450;-69
2022/03/19 04:00:22;;;;;;;60.20;41.93;;;4.90;99.90;;;;;;5013555;28;20457;-69
2022/03/19 04:02:48;;;;;;;55.50;42.20;;;4.80;99.90;;;;;;5008549;28;20187;-69
2022/03/19 04:05:14;;;;;;;55.70;41.80;;;4.80;99.90;;;;;;5008258;28;20209;-69
2022/03/19 04:07:39;;;;;;;52.70;38.80;;;4.80;99.90;;;;;;5006725;28;20527;-69
2022/03/19 04:10:06;;;;;;;57.03;41.17;;;4.70;99.90;;;;;;5006053;28;20630;-69
2022/03/19 04:12:31;;;;;;;56.20;39.23;;;4.80;99.90;;;;;;5008592;28;20218;-69
2022/03/19 04:14:57;;;;;;;55.50;41.37;;;4.80;99.90;;;;;;5009389;28;20485;-69
2022/03/19 04:17:22;;;;;;;58.67;42.13;;;4.80;99.90;;;;;;5007854;28;20187;-69
2022/03/19 04:19:48;;;;;;;62.07;42.97;;;4.80;99.90;;;;;;5004691;28;20211;-69
2022/03/19 04:22:13;;;;;;;59.73;41.10;;;4.80;99.90;;;;;;5011413;28;20234;-69
2022/03/19 04:24:39;;;;;;;60.47;43.13;;;4.80;99.90;;;;;;5010408;28;20241;-69
2022/03/19 04:27:04;;;;;;;55.10;39.27;;;4.80;99.90;;;;;;5010611;28;20658;-69
2022/03/19 04:29:30;;;;;;;56.93;39.60;;;4.70;99.90;;;;;;5009225;28;20203;-69
2022/03/19 04:31:56;;;;;;;58.03;43.63;;;4.70;99.90;;;;;;5009530;28;20175;-69
2022/03/19 04:34:22;;;;;;;51.97;38.77;;;4.60;99.90;;;;;;5008536;28;20820;-69
2022/03/19 04:36:48;;;;;;;58.00;40.67;;;4.60;99.90;;;;;;5010781;28;20187;-69
2022/03/19 04:39:13;;;;;;;63.73;43.17;;;4.50;99.90;;;;;;5005469;28;20222;-69
2022/03/19 04:41:39;;;;;;;58.57;40.73;;;4.50;99.90;;;;;;5005639;28;20454;-69
2022/03/19 04:44:05;;;;;;;55.50;39.90;;;4.50;99.90;;;;;;5008680;28;20252;-69
2022/03/19 04:46:31;;;;;;;53.63;40.00;;;4.50;99.90;;;;;;5006781;28;20233;-69
2022/03/19 04:48:57;;;;;;;55.03;39.87;;;4.40;99.90;;;;;;5010077;28;20513;-69
2022/03/19 04:51:33;;;;;;;60.40;41.77;;;4.40;99.90;;;;;;5008669;28;20209;-68
2022/03/19 04:54:00;;;;;;;58.93;39.00;;;4.40;99.90;;;;;;5006235;28;20213;-69
2022/03/19 04:56:27;;;;;;;56.03;39.17;;;4.40;99.90;;;;;;5005585;28;20451;-69
2022/03/19 04:58:56;;;;;;;62.20;42.37;;;4.30;99.90;;;;;;5007246;28;20489;-68
2022/03/19 05:01:26;;;;;;;60.33;40.27;;;4.30;99.90;;;;;;5007138;28;20584;-69
2022/03/19 05:03:51;;;;;;;58.40;41.60;;;4.30;99.90;;;;;;5006390;28;21019;-69
2022/03/19 05:06:17;;;;;;;55.33;41.10;;;4.30;99.90;;;;;;5006655;28;20500;-69
2022/03/19 05:08:42;;;;;;;57.77;42.30;;;4.30;99.90;;;;;;5006843;28;20256;-69
2022/03/19 05:11:14;;;;;;;59.80;39.97;;;4.30;99.90;;;;;;5009853;28;20215;-69
2022/03/19 05:13:41;;;;;;;52.80;38.53;;;4.30;99.90;;;;;;5007261;28;20204;-70
2022/03/19 05:16:07;;;;;;;54.03;40.37;;;4.30;99.90;;;;;;5004062;28;20529;-70
2022/03/19 05:18:33;;;;;;;57.73;40.43;;;4.30;99.90;;;;;;5006220;28;20932;-69
2022/03/19 05:20:58;;;;;;;58.37;39.33;;;4.30;99.90;;;;;;5004708;28;20660;-69
2022/03/19 05:23:24;;;;;;;61.60;41.30;;;4.30;99.90;;;;;;5007942;28;20437;-69
2022/03/19 05:25:50;;;;;;;54.93;40.53;;;4.30;99.90;;;;;;5005237;28;20264;-68
2022/03/19 05:28:16;;;;;;;57.17;41.53;;;4.30;99.90;;;;;;5001121;28;20179;-68
2022/03/19 05:30:41;;;;;;;51.47;37.57;;;4.30;99.90;;;;;;5005668;28;20226;-69
2022/03/19 05:33:07;;;;;;;50.50;39.77;;;4.30;99.90;;;;;;5004462;28;20611;-69
2022/03/19 05:35:34;;;;;;;51.13;37.97;;;4.30;99.90;;;;;;5005315;28;20245;-68
2022/03/19 05:38:00;;;;;;;56.67;39.17;;;4.30;99.90;;;;;;5004801;28;20195;-69
2022/03/19 05:40:27;;;;;;;52.63;38.13;;;4.30;99.90;;;;;;5008225;28;20461;-69
2022/03/19 05:42:52;;;;;;;57.23;41.60;;;4.30;99.90;;;;;;5006210;28;20514;-70
2022/03/19 05:45:20;;;;;;;54.47;41.73;;;4.30;99.90;;;;;;5006834;28;20441;-70
2022/03/19 05:47:46;;;;;;;59.80;42.10;;;4.30;99.90;;;;;;4998802;28;20175;-69
2022/03/19 05:50:12;;;;;;;76.87;61.17;;;4.30;99.90;;;;;;5001184;28;20474;-69
2022/03/19 05:52:38;;;;;;;62.80;47.67;;;4.30;99.90;;;;;;5009630;28;20438;-69
2022/03/19 05:55:04;;;;;;;75.50;59.60;;;4.30;99.90;;;;;;4999269;28;20680;-69
2022/03/19 05:57:30;;;;;;;63.63;42.40;;;4.30;99.90;;;;;;5005970;28;20450;-69
2022/03/19 05:59:56;;;;;;;58.03;42.07;;;4.30;99.90;;;;;;5006720;28;20952;-69
2022/03/19 06:02:21;;;;;;;54.40;37.40;;;4.30;99.90;;;;;;5004858;28;20229;-69
2022/03/19 06:04:47;;;;;;;57.03;40.60;;;4.30;99.90;;;;;;5000408;28;20613;-69
2022/03/19 06:07:12;;;;;;;54.00;38.50;;;4.50;99.90;;;;;;5003836;28;20687;-69
2022/03/19 06:09:38;;;;;;;57.20;39.77;;;4.60;99.90;;;;;;5009881;28;20214;-69
2022/03/19 06:12:03;;;;;;;58.60;43.80;;;4.70;99.90;;;;;;5009024;28;20240;-69
2022/03/19 06:14:29;;;;;;;57.67;40.50;;;4.70;99.90;;;;;;5005368;28;20182;-69
2022/03/19 06:16:55;;;;;;;55.13;40.60;;;4.80;99.90;;;;;;5008437;28;20442;-69
2022/03/19 06:19:20;;;;;;;58.63;41.97;;;4.90;99.90;;;;;;5010948;28;20268;-69
2022/03/19 06:21:47;;;;;;;51.40;39.10;;;5.10;99.90;;;;;;5006705;28;20171;-69
2022/03/19 06:24:12;;;;;;;57.40;37.80;;;5.30;99.90;;;;;;5010013;28;20182;-69
2022/03/19 06:26:38;;;;;;;53.20;41.10;;;5.40;99.90;;;;;;5005515;28;20433;-69
2022/03/19 06:29:04;;;;;;;60.20;42.30;;;5.50;99.90;;;;;;5004909;28;20202;-69
2022/03/19 06:31:30;;;;;;;58.33;42.30;;;5.60;99.90;;;;;;5009804;28;20249;-70
2022/03/19 06:33:55;;;;;;;51.30;39.70;;;5.70;99.90;;;;;;5008241;28;20272;-69
2022/03/19 06:39:05;;;;;;;54.20;39.43;;;6.00;99.90;;;;;;5008936;28;20217;-69
2022/03/19 06:41:31;;;;;;;59.77;41.60;;;6.10;99.90;;;;;;5014543;28;20824;-69
2022/03/19 06:43:57;;;;;;;49.70;39.10;;;6.10;99.90;;;;;;5012058;28;20453;-69
2022/03/19 06:46:23;;;;;;;56.83;40.20;;;6.30;99.90;;;;;;5019519;28;20808;-69
2022/03/19 06:48:49;;;;;;;50.40;40.23;;;6.40;99.90;;;;;;5015233;28;20257;-69
2022/03/19 06:51:17;;;;;;;49.30;39.80;;;6.50;99.90;;;;;;5008572;28;20199;-69
2022/03/19 06:53:42;;;;;;;50.80;41.00;;;6.70;99.90;;;;;;5013141;28;20879;-70
2022/03/19 06:56:08;;;;;;;54.47;40.60;;;6.90;99.90;;;;;;5012857;28;20529;-70
2022/03/19 06:58:34;;;;;;;56.03;39.50;;;7.00;99.90;;;;;;5013581;28;20182;-69
2022/03/19 07:01:03;;;;;;;49.40;37.63;;;7.10;99.90;;;;;;5012296;28;20188;-69
2022/03/19 07:03:30;;;;;;;45.80;36.43;;;7.40;99.90;;;;;;5013881;28;20448;-69
2022/03/19 07:05:56;;;;;;;51.20;38.47;;;7.40;99.90;;;;;;5012901;28;20442;-69
2022/03/19 07:08:21;;;;;;;49.53;37.70;;;7.50;99.90;;;;;;5015459;28;20864;-69
2022/03/19 07:10:48;;;;;;;53.67;38.13;;;7.50;99.90;;;;;;5005228;28;20671;-69
2022/03/19 07:13:14;;;;;;;45.67;37.17;;;7.50;99.90;;;;;;5013729;28;20179;-69
2022/03/19 07:15:41;;;;;;;49.13;36.53;;;7.50;99.90;;;;;;5012958;28;20469;-69
2022/03/19 07:18:07;;;;;;;50.57;36.20;;;7.70;99.90;;;;;;5012063;28;20430;-69
2022/03/19 07:20:33;;;;;;;47.80;37.20;;;7.80;99.90;;;;;;5001642;28;20992;-68
2022/03/19 07:23:06;;;;;;;44.93;35.30;;;7.80;99.90;;;;;;5000702;28;20191;-69
2022/03/19 07:25:37;;;;;;;44.27;34.03;;;8.00;99.90;;;;;;5012898;28;20553;-69
2022/03/19 07:28:11;;;;;;;46.13;35.13;;;8.20;99.90;;;;;;5009488;28;20442;-69
2022/03/19 07:30:38;;;;;;;48.27;35.27;;;8.40;99.90;;;;;;4993023;28;20677;-69
2022/03/19 07:33:04;;;;;;;48.23;36.70;;;8.50;99.90;;;;;;5012659;28;20453;-69
2022/03/19 07:35:29;;;;;;;52.43;39.97;;;8.60;99.90;;;;;;5005830;28;20437;-69
2022/03/19 07:37:57;;;;;;;43.73;35.17;;;8.80;99.90;;;;;;4988817;28;20455;-70
2022/03/19 07:43:09;;;;;;;41.80;33.67;;;9.10;99.90;;;;;;5011315;28;20449;-70
2022/03/19 07:45:36;;;;;;;45.30;35.30;;;9.30;99.90;;;;;;5010082;28;20818;-69
2022/03/19 07:48:02;;;;;;;43.93;34.90;;;9.40;99.90;;;;;;4994143;28;20433;-69
2022/03/19 07:50:28;;;;;;;49.73;34.70;;;9.60;99.90;;;;;;5012996;28;20472;-69
2022/03/19 07:52:53;;;;;;;39.60;31.83;;;9.70;99.90;;;;;;5013143;28;20426;-69
2022/03/19 07:55:19;;;;;;;39.43;34.00;;;9.80;99.90;;;;;;5009074;28;20179;-69
2022/03/19 07:57:45;;;;;;;46.20;35.43;;;10.00;99.90;;;;;;5011762;28;20178;-69
2022/03/19 08:00:12;;;;;;;47.50;33.87;;;10.30;99.90;;;;;;5012517;28;20199;-69
2022/03/19 08:02:39;;;;;;;42.60;32.93;;;10.30;99.90;;;;;;5011667;28;20183;-69
2022/03/19 08:05:05;;;;;;;37.80;32.00;;;10.20;99.90;;;;;;5010489;28;20521;-69
2022/03/19 08:07:30;;;;;;;34.60;30.43;;;10.30;99.90;;;;;;5009525;28;20445;-69
2022/03/19 08:09:56;;;;;;;40.40;31.20;;;10.60;99.90;;;;;;5010133;28;20465;-69
2022/03/19 08:12:22;;;;;;;35.70;31.40;;;10.70;99.90;;;;;;5012817;28;20250;-68
2022/03/19 08:14:49;;;;;;;37.67;32.00;;;10.80;99.90;;;;;;5011495;28;20618;-69
2022/03/19 08:17:15;;;;;;;40.10;31.00;;;10.70;99.90;;;;;;5011309;28;20984;-69
2022/03/19 08:19:42;;;;;;;37.37;31.03;;;10.80;99.90;;;;;;5007384;28;20449;-69
2022/03/19 08:22:08;;;;;;;36.27;28.57;;;10.80;99.90;;;;;;5011706;28;20618;-69
2022/03/19 08:24:34;;;;;;;35.90;31.63;;;10.90;99.90;;;;;;5007554;28;20436;-70
2022/03/19 08:27:01;;;;;;;36.28;31.25;;;11.00;99.50;;;;;;5006791;28;20423;-69
2022/03/19 08:29:27;;;;;;;41.33;30.83;;;11.10;99.40;;;;;;5011737;28;20282;-69
2022/03/19 08:31:53;;;;;;;35.23;31.53;;;11.30;98.70;;;;;;5007790;28;20429;-72
2022/03/19 08:34:18;;;;;;;32.73;28.00;;;11.40;97.80;;;;;;5012825;28;20167;-70
2022/03/19 08:36:44;;;;;;;32.17;27.70;;;11.70;97.50;;;;;;5007425;28;20527;-69
2022/03/19 08:41:54;;;;;;;33.10;28.93;;;12.70;94.80;;;;;;5010620;28;20241;-69
2022/03/19 08:44:20;;;;;;;39.03;28.77;;;12.70;92.50;;;;;;5006694;28;20933;-69
2022/03/19 08:46:46;;;;;;;29.97;25.40;;;12.50;92.60;;;;;;5009171;28;20453;-68
2022/03/19 08:49:12;;;;;;;29.77;26.53;;;12.40;90.80;;;;;;5011465;28;20523;-68
2022/03/19 08:51:40;;;;;;;35.30;26.27;;;12.00;90.60;;;;;;5004287;28;20211;-68
2022/03/19 08:54:18;;;;;;;30.83;27.47;;;12.10;90.30;;;;;;5007694;28;20188;-69
2022/03/19 08:56:46;;;;;;;31.13;26.73;;;12.00;90.40;;;;;;4994351;28;20441;-68
2022/03/19 08:59:12;;;;;;;31.77;26.27;;;12.60;89.40;;;;;;5008056;28;20536;-69
2022/03/19 09:01:39;;;;;;;29.67;25.73;;;12.70;87.10;;;;;;5007122;28;20533;-69
2022/03/19 09:04:05;;;;;;;27.50;24.70;;;12.90;84.40;;;;;;5009961;28;20442;-69
2022/03/19 09:06:31;;;;;;;30.47;27.03;;;13.00;85.00;;;;;;5010952;28;20525;-69
2022/03/19 09:08:57;;;;;;;28.83;25.60;;;13.40;82.10;;;;;;5011964;28;20640;-69
2022/03/19 09:11:23;;;;;;;30.00;27.00;;;13.10;80.60;;;;;;5011445;28;20289;-68
2022/03/19 09:13:51;;;;;;;27.73;24.63;;;13.20;81.50;;;;;;5009004;28;20497;-68
2022/03/19 09:16:17;;;;;;;32.30;28.23;;;13.80;80.30;;;;;;5001887;28;20546;-69
2022/03/19 09:18:43;;;;;;;29.07;26.00;;;14.00;77.90;;;;;;5009596;28;20457;-69
2022/03/19 09:21:09;;;;;;;30.53;26.40;;;13.70;75.70;;;;;;5007909;28;20819;-69
2022/03/19 09:23:34;;;;;;;33.63;29.40;;;13.50;75.80;;;;;;5006738;28;20222;-69
2022/03/19 09:26:00;;;;;;;30.37;27.13;;;13.60;77.10;;;;;;5005608;28;20705;-69
2022/03/19 09:28:25;;;;;;;30.10;26.87;;;13.90;76.80;;;;;;5003149;28;20189;-70
2022/03/19 09:30:51;;;;;;;35.47;28.70;;;14.30;76.50;;;;;;5009175;28;20556;-70
2022/03/19 09:33:17;;;;;;;31.47;28.17;;;15.00;74.60;;;;;;5009492;28;20537;-69
2022/03/19 09:35:45;;;;;;;31.23;27.63;;;15.40;71.70;;;;;;5011248;28;20650;-70
2022/03/19 09:38:11;;;;;;;30.50;27.00;;;15.20;69.90;;;;;;5008111;28;20462;-70
2022/03/19 09:40:39;;;;;;;32.70;29.37;;;15.50;70.00;;;;;;5010496;28;20481;-69
2022/03/19 09:43:04;;;;;;;32.47;28.97;;;15.70;68.40;;;;;;5002151;28;20465;-70
2022/03/19 09:45:30;;;;;;;33.20;29.77;;;16.00;68.00;;;;;;5011707;28;20483;-70
2022/03/19 09:47:56;;;;;;;35.43;31.00;;;16.80;67.70;;;;;;5004804;28;20191;-70
2022/03/19 09:50:23;;;;;;;33.37;30.07;;;17.80;64.00;;;;;;5011795;28;20773;-71
2022/03/19 09:52:53;;;;;;;33.07;29.53;;;18.10;60.80;;;;;;5007910;28;20987;-71
2022/03/19 09:55:20;;;;;;;34.13;30.80;;;17.80;59.70;;;;;;5009596;28;20496;-71
2022/03/19 09:57:46;;;;;;;35.77;32.27;;;17.90;60.50;;;;;;5001136;28;20442;-71
2022/03/19 10:00:13;;;;;;;34.23;30.50;;;18.00;59.60;;;;;;5002330;28;20503;-72
2022/03/19 10:02:53;;;;;;;34.00;30.30;;;18.40;59.30;;;;;;5000461;28;20822;-71
2022/03/19 10:10:49;;;;;;;33.70;30.40;;;18.70;56.70;;;;;;4997609;28;20481;-71
2022/03/19 10:13:14;;;;;;;31.83;28.77;;;19.00;55.80;;;;;;4987042;28;20449;-71
2022/03/19 10:15:43;;;;;;;30.77;27.77;;;19.30;54.70;;;;;;5010934;28;20187;-71
2022/03/19 10:18:10;;;;;;;32.33;29.27;;;19.70;53.90;;;;;;5007113;28;20194;-71
2022/03/19 10:20:35;;;;;;;32.20;28.97;;;19.20;54.50;;;;;;5005150;28;20458;-72
2022/03/19 10:23:02;;;;;;;33.20;29.87;;;19.90;54.60;;;;;;5006559;28;21001;-71
2022/03/19 10:25:28;;;;;;;33.40;29.53;;;20.70;53.10;;;;;;5012105;28;20425;-71
2022/03/19 10:28:09;;;;;;;30.10;27.20;;;20.50;51.90;;;;;;5014296;28;20499;-71
2022/03/19 10:30:39;;;;;;;34.37;30.20;;;21.10;51.20;;;;;;5013566;28;20568;-69
2022/03/19 10:33:09;;;;;;;33.33;30.37;;;21.40;49.70;;;;;;5014380;28;20441;-72
2022/03/19 10:35:39;;;;;;;33.30;30.27;;;22.60;48.30;;;;;;5014858;28;20433;-70
2022/03/19 10:38:23;;;;;;;32.50;29.30;;;22.40;46.60;;;;;;5013551;28;20456;-71
2022/03/19 10:40:51;;;;;;;33.27;30.00;;;22.30;45.90;;;;;;5006782;28;20799;-72
2022/03/19 10:43:22;;;;;;;33.30;30.23;;;22.30;45.40;;;;;;5009740;28;20544;-69
2022/03/19 10:45:50;;;;;;;33.07;29.77;;;22.10;45.60;;;;;;5010526;28;20453;-71
2022/03/19 10:48:23;;;;;;;34.43;31.23;;;22.00;45.40;;;;;;5015279;28;20438;-70
2022/03/19 10:50:50;;;;;;;35.23;31.77;;;22.00;45.30;;;;;;5014073;28;20472;-73
2022/03/19 10:53:17;;;;;;;34.43;31.10;;;21.50;45.60;;;;;;5014596;28;21001;-71
2022/03/19 10:55:43;;;;;;;34.37;31.27;;;21.50;46.20;;;;;;5007078;28;20444;-71
2022/03/19 10:58:09;;;;;;;35.50;32.30;;;21.20;46.30;;;;;;4995087;28;20952;-71
2022/03/19 11:00:35;;;;;;;35.90;32.50;;;21.60;46.20;;;;;;5010526;28;20211;-71
2022/03/19 11:03:10;;;;;;;35.47;32.00;;;21.80;45.60;;;;;;5013945;28;20452;-71
2022/03/19 11:05:37;;;;;;;34.33;30.93;;;22.40;45.40;;;;;;5007867;28;20448;-71
2022/03/19 11:08:07;;;;;;;36.87;33.27;;;22.70;45.00;;;;;;5008937;28;20450;-71
2022/03/19 11:10:35;;;;;;;36.40;32.60;;;22.90;44.20;;;;;;5011398;28;20465;-71
2022/03/19 11:13:02;;;;;;;38.27;34.37;;;21.90;45.50;;;;;;5010000;28;20453;-71
2022/03/19 11:15:33;;;;;;;37.53;33.97;;;20.70;47.20;;;;;;5009993;28;20442;-71
2022/03/19 11:18:03;;;;;;;35.50;32.07;;;21.00;46.80;;;;;;5010452;28;21303;-70
2022/03/19 11:20:29;;;;;;;34.63;31.00;;;20.30;47.80;;;;;;5011747;28;20458;-70
2022/03/19 11:22:58;;;;;;;35.23;31.70;;;19.00;48.60;;;;;;5011770;28;20449;-70
2022/03/19 11:25:26;;;;;;;31.17;27.87;;;18.20;49.80;;;;;;5011007;28;20481;-70
2022/03/19 11:27:55;;;;;;;30.87;25.40;;;17.60;49.90;;;;;;4985847;28;20472;-70
2022/03/19 11:30:23;;;;;;;32.00;28.80;;;18.00;49.90;;;;;;5003231;28;20461;-70
2022/03/19 11:33:08;;;;;;;31.37;28.20;;;18.20;48.90;;;;;;5010999;28;20437;-70
2022/03/19 11:35:36;;;;;;;28.80;25.70;;;19.10;48.30;;;;;;5011828;28;20868;-70
2022/03/19 11:38:29;;;;;;;30.93;27.67;;;19.70;46.80;;;;;;5009069;28;20507;-70
2022/03/19 11:40:56;;;;;;;28.67;25.90;;;21.60;46.20;;;;;;5005297;28;20496;-71
2022/03/19 11:43:24;;;;;;;25.83;21.37;;;23.00;43.50;;;;;;5012798;28;20430;-70
2022/03/19 11:46:03;;;;;;;23.47;21.17;;;23.00;41.90;;;;;;5011453;28;20881;-70
2022/03/19 11:48:48;;;;;;;21.97;19.67;;;22.30;40.60;;;;;;5005965;28;20517;-71
2022/03/19 11:51:17;;;;;;;21.80;19.70;;;21.60;41.60;;;;;;5012392;28;20461;-71
2022/03/19 11:53:56;;;;;;;22.13;19.67;;;21.30;42.60;;;;;;5013124;28;20436;-71
2022/03/19 11:56:23;;;;;;;20.70;17.50;;;20.70;43.30;;;;;;5012327;28;20520;-70
2022/03/19 11:58:49;;;;;;;18.90;17.10;;;19.10;44.40;;;;;;5005127;28;20470;-70
2022/03/19 12:01:15;;;;;;;19.40;17.40;;;17.70;46.40;;;;;;5005417;28;20454;-70
2022/03/19 12:04:06;;;;;;;19.37;17.13;;;16.40;48.30;;;;;;5005377;28;20944;-70
2022/03/19 12:06:38;;;;;;;20.90;17.33;;;15.90;49.90;;;;;;5005711;28;20516;-70
2022/03/19 12:09:04;;;;;;;21.77;16.63;;;16.70;50.10;;;;;;5005679;28;20973;-70
2022/03/19 12:11:32;;;;;;;18.80;16.90;;;18.40;47.30;;;;;;5006239;28;20540;-70
2022/03/19 12:13:58;;;;;;;17.73;15.90;;;19.10;46.30;;;;;;5007452;28;20801;-70
2022/03/19 12:16:36;;;;;;;19.20;16.17;;;19.90;45.60;;;;;;5011465;28;20446;-70
2022/03/19 12:19:02;;;;;;;15.00;13.60;;;21.20;44.30;;;;;;5006290;28;20913;-70
2022/03/19 12:21:34;;;;;;;18.80;15.80;;;21.50;43.00;;;;;;5003367;28;20521;-70
2022/03/19 12:24:13;;;;;;;18.37;14.90;;;20.00;43.50;;;;;;5012538;28;20666;-70
2022/03/19 12:26:44;;;;;;;16.40;14.67;;;19.30;44.60;;;;;;5011159;28;20444;-70
2022/03/19 12:29:11;;;;;;;17.30;14.77;;;17.70;45.90;;;;;;5003851;28;20861;-70
2022/03/19 12:31:41;;;;;;;15.60;13.93;;;17.20;48.20;;;;;;5001658;28;20463;-71
2022/03/19 12:34:21;;;;;;;14.10;12.43;;;18.70;46.10;;;;;;5011434;28;20440;-72
2022/03/19 12:36:48;;;;;;;17.23;12.87;;;19.30;44.40;;;;;;5013554;28;20434;-73
2022/03/19 12:39:13;;;;;;;16.27;14.47;;;19.20;43.60;;;;;;5010144;28;20477;-73
2022/03/19 12:41:41;;;;;;;15.27;13.50;;;18.20;44.00;;;;;;5012367;28;20453;-72
2022/03/19 12:44:16;;;;;;;15.67;14.07;;;17.40;44.90;;;;;;5007865;28;20446;-71
2022/03/19 12:46:42;;;;;;;16.13;14.40;;;17.90;44.30;;;;;;5006956;28;20440;-71
2022/03/19 12:49:12;;;;;;;14.27;12.10;;;17.90;43.70;;;;;;4999562;28;20466;-70